Time;durP1;ratioP1;P1;durP2;ratioP2;P2;SDS_P1;SDS_P2;PMS_P1;PMS_P2;Temp;Humidity;BMP_temperature;BMP_pressure;BME280_temperature;BME280_humidity;BME280_pressure;Samples;Min_cycle;Max_cycle;Signal;HPM_P1;HPM_P2
2021/08/01 00:02:20;;;;;;;11.25;5.65;;;;;;;12.97;100.00;93288.78;5091372;28;20444;-75
2021/08/01 00:04:47;;;;;;;12.07;5.27;;;;;;;12.93;100.00;93296.31;5092774;28;20300;-77
2021/08/01 00:07:13;;;;;;;12.03;5.57;;;;;;;12.94;100.00;93291.88;5092818;28;20210;-75
2021/08/01 00:09:40;;;;;;;9.13;4.95;;;;;;;12.95;100.00;93288.22;5085557;28;20558;-77
2021/08/01 00:12:07;;;;;;;10.70;5.00;;;;;;;12.92;100.00;93286.88;5072463;28;20202;-76
2021/08/01 00:14:37;;;;;;;14.20;5.57;;;;;;;12.91;100.00;93281.84;5072336;28;20199;-76
2021/08/01 00:17:04;;;;;;;11.07;5.77;;;;;;;12.89;100.00;93283.88;5072254;28;20205;-76
2021/08/01 00:19:32;;;;;;;14.53;5.03;;;;;;;12.86;100.00;93297.47;5072495;28;20233;-76
2021/08/01 00:21:59;;;;;;;14.57;6.00;;;;;;;12.82;100.00;93288.44;5072211;28;20711;-76
2021/08/01 00:24:25;;;;;;;9.37;5.30;;;;;;;12.82;100.00;93286.59;5072328;28;20289;-77
2021/08/01 00:26:52;;;;;;;16.33;5.90;;;;;;;12.80;100.00;93287.88;5072609;28;20202;-77
2021/08/01 00:29:19;;;;;;;10.57;6.20;;;;;;;12.70;100.00;93289.22;5073144;28;20202;-76
2021/08/01 00:31:47;;;;;;;8.80;5.07;;;;;;;12.65;100.00;93296.16;5072900;28;20202;-77
2021/08/01 00:34:13;;;;;;;9.33;5.50;;;;;;;12.55;100.00;93291.47;5072302;28;20732;-76
2021/08/01 00:36:40;;;;;;;10.97;5.13;;;;;;;12.46;100.00;93304.09;5080591;28;20590;-76
2021/08/01 00:39:06;;;;;;;9.37;5.33;;;;;;;12.47;100.00;93300.44;5092430;28;20202;-75
2021/08/01 00:41:33;;;;;;;20.53;5.87;;;;;;;12.36;100.00;93299.38;5092287;28;20206;-76
2021/08/01 00:44:00;;;;;;;11.97;5.80;;;;;;;12.35;100.00;93294.38;5092247;28;20225;-77
2021/08/01 00:46:26;;;;;;;10.23;4.57;;;;;;;12.29;100.00;93292.63;5095078;28;20653;-76
2021/08/01 00:48:57;;;;;;;13.53;6.07;;;;;;;12.28;100.00;93301.53;5096076;28;20553;-76
2021/08/01 00:51:23;;;;;;;9.70;4.93;;;;;;;12.20;100.00;93295.56;5095923;28;20202;-77
2021/08/01 00:53:51;;;;;;;12.70;5.90;;;;;;;12.19;100.00;93294.00;5095931;28;20205;-76
2021/08/01 00:56:21;;;;;;;8.30;5.40;;;;;;;12.17;100.00;93289.97;5095752;28;20202;-77
2021/08/01 00:58:47;;;;;;;9.07;5.33;;;;;;;12.13;100.00;93289.63;5095698;28;20676;-77
2021/08/01 01:01:18;;;;;;;7.73;5.30;;;;;;;12.17;100.00;93284.75;5095880;28;20209;-76
2021/08/01 01:04:07;;;;;;;8.63;5.43;;;;;;;12.15;100.00;93282.34;5095587;28;20225;-77
2021/08/01 01:06:44;;;;;;;11.33;5.27;;;;;;;12.17;100.00;93288.19;5095819;28;20205;-76
2021/08/01 01:09:21;;;;;;;13.03;6.17;;;;;;;12.20;100.00;93300.00;5095921;28;20201;-76
2021/08/01 01:11:51;;;;;;;8.67;5.20;;;;;;;12.20;100.00;93294.78;5095724;28;20212;-76
2021/08/01 01:14:23;;;;;;;15.17;5.97;;;;;;;12.26;100.00;93288.66;5095636;28;20209;-76
2021/08/01 01:16:54;;;;;;;10.07;5.30;;;;;;;12.29;100.00;93288.22;5095474;28;20202;-76
2021/08/01 01:19:34;;;;;;;9.00;4.97;;;;;;;12.29;100.00;93290.84;5095592;28;20202;-76
2021/08/01 01:22:07;;;;;;;8.50;5.10;;;;;;;12.28;100.00;93291.06;5095538;28;20205;-76
2021/08/01 01:24:39;;;;;;;10.30;5.27;;;;;;;12.27;100.00;93278.97;5095302;28;20226;-76
2021/08/01 01:27:12;;;;;;;8.57;4.30;;;;;;;12.23;100.00;93280.47;5095214;28;20773;-77
2021/08/01 01:29:46;;;;;;;10.63;4.60;;;;;;;12.23;100.00;93277.84;5095244;28;20567;-77
2021/08/01 01:32:21;;;;;;;12.63;5.07;;;;;;;12.25;100.00;93270.56;5095123;28;20675;-75
2021/08/01 01:34:57;;;;;;;6.97;4.47;;;;;;;12.21;100.00;93278.06;5095178;28;20197;-76
2021/08/01 01:37:26;;;;;;;7.90;4.47;;;;;;;12.15;100.00;93271.88;5095053;28;20198;-77
2021/08/01 01:39:55;;;;;;;12.43;5.00;;;;;;;12.16;100.00;93268.25;5094868;28;20202;-78
2021/08/01 01:42:23;;;;;;;9.20;4.60;;;;;;;12.15;100.00;93266.66;5094816;28;20201;-77
2021/08/01 01:44:49;;;;;;;7.93;4.57;;;;;;;12.13;100.00;93266.09;5095101;28;20201;-78
2021/08/01 01:47:17;;;;;;;7.70;3.87;;;;;;;12.13;100.00;93262.69;5094927;28;20229;-77
2021/08/01 01:49:44;;;;;;;11.07;4.93;;;;;;;12.13;100.00;93267.91;5092731;28;20561;-76
2021/08/01 01:52:12;;;;;;;7.90;4.30;;;;;;;12.11;100.00;93265.50;5094735;28;20206;-77
2021/08/01 01:54:41;;;;;;;8.97;4.27;;;;;;;12.13;100.00;93258.22;5094697;28;20226;-77
2021/08/01 01:57:08;;;;;;;7.63;4.30;;;;;;;12.15;100.00;93247.53;5094787;28;20605;-75
2021/08/01 01:59:36;;;;;;;8.90;4.27;;;;;;;12.14;100.00;93254.59;5094707;28;20198;-76
2021/08/01 02:02:06;;;;;;;10.87;5.07;;;;;;;12.14;100.00;93252.00;5094638;28;20209;-77
2021/08/01 02:04:32;;;;;;;9.80;4.27;;;;;;;12.11;100.00;93255.03;5094438;28;20229;-75
2021/08/01 02:06:59;;;;;;;9.83;4.00;;;;;;;12.10;100.00;93242.19;5094363;28;20202;-75
2021/08/01 02:09:38;;;;;;;11.30;4.10;;;;;;;12.05;100.00;93240.22;5094339;28;20656;-76
2021/08/01 02:12:11;;;;;;;8.53;4.03;;;;;;;12.05;100.00;93239.44;5094506;28;20202;-76
2021/08/01 02:14:46;;;;;;;8.37;4.13;;;;;;;12.04;100.00;93241.25;5094259;28;20475;-76
2021/08/01 02:17:16;;;;;;;12.93;3.80;;;;;;;12.00;100.00;93245.34;5094188;28;20493;-76
2021/08/01 02:19:45;;;;;;;6.33;3.63;;;;;;;11.92;100.00;93245.63;5094163;28;20209;-77
2021/08/01 02:22:13;;;;;;;9.23;3.37;;;;;;;11.89;100.00;93240.81;5094349;28;20210;-76
2021/08/01 02:24:40;;;;;;;8.90;3.87;;;;;;;11.93;100.00;93234.16;5094204;28;20677;-78
2021/08/01 02:27:10;;;;;;;5.00;2.93;;;;;;;11.93;100.00;93247.25;5094062;28;20202;-77
2021/08/01 02:29:38;;;;;;;7.83;3.67;;;;;;;11.92;100.00;93238.59;5093988;28;20199;-77
2021/08/01 02:32:06;;;;;;;8.20;4.07;;;;;;;11.92;100.00;93240.41;5093868;28;20221;-76
2021/08/01 02:34:32;;;;;;;5.73;3.00;;;;;;;11.93;100.00;93247.25;5094199;28;20221;-76
2021/08/01 02:37:00;;;;;;;8.10;4.00;;;;;;;11.94;100.00;93240.97;5093214;28;20696;-77
2021/08/01 02:39:26;;;;;;;8.70;3.77;;;;;;;11.93;100.00;93245.41;5093759;28;20205;-76
2021/08/01 02:41:54;;;;;;;6.43;3.70;;;;;;;11.92;100.00;93245.63;5093845;28;20206;-76
2021/08/01 02:44:25;;;;;;;5.40;3.07;;;;;;;11.90;100.00;93247.66;5093684;28;20638;-76
2021/08/01 02:46:53;;;;;;;7.07;3.77;;;;;;;11.87;100.00;93243.66;5093975;28;20194;-77
2021/08/01 02:49:24;;;;;;;5.47;4.00;;;;;;;11.87;100.00;93245.47;5093820;28;20202;-76
2021/08/01 02:51:53;;;;;;;6.40;3.03;;;;;;;11.85;100.00;93243.88;5093791;28;20198;-76
2021/08/01 02:54:21;;;;;;;7.10;3.37;;;;;;;11.84;100.00;93246.72;5093575;28;20198;-76
2021/08/01 02:56:49;;;;;;;7.57;3.30;;;;;;;11.84;100.00;93244.91;5093465;28;20606;-76
2021/08/01 02:59:17;;;;;;;6.63;3.60;;;;;;;11.83;100.00;93248.53;5093187;28;20792;-76
2021/08/01 03:01:46;;;;;;;5.87;3.63;;;;;;;11.81;100.00;93250.56;5093570;28;20205;-77
2021/08/01 03:04:14;;;;;;;9.37;3.77;;;;;;;11.83;100.00;93253.75;5093291;28;20232;-77
2021/08/01 03:06:42;;;;;;;5.67;3.53;;;;;;;11.84;100.00;93252.75;5093500;28;20236;-76
2021/08/01 03:09:11;;;;;;;5.70;3.60;;;;;;;11.85;100.00;93246.50;5092931;28;20197;-76
2021/08/01 03:11:37;;;;;;;6.83;3.60;;;;;;;11.88;100.00;93249.69;5093304;28;20204;-77
2021/08/01 03:14:05;;;;;;;7.93;4.10;;;;;;;11.85;100.00;93256.94;5093412;28;20213;-76
2021/08/01 03:16:32;;;;;;;5.23;3.47;;;;;;;11.91;100.00;93262.34;5093442;28;20194;-76
2021/08/01 03:18:59;;;;;;;11.33;3.87;;;;;;;11.90;100.00;93258.13;5093290;28;20209;-76
2021/08/01 03:21:26;;;;;;;6.73;3.83;;;;;;;11.89;100.00;93266.97;5093243;28;20197;-77
2021/08/01 03:23:52;;;;;;;9.10;3.60;;;;;;;11.87;100.00;93272.44;5093063;28;20225;-76
2021/08/01 03:26:19;;;;;;;5.23;3.50;;;;;;;11.87;100.00;93269.03;5093052;28;20206;-77
2021/08/01 03:28:45;;;;;;;6.77;3.70;;;;;;;11.85;100.00;93266.63;5093266;28;20208;-77
2021/08/01 03:31:12;;;;;;;12.10;4.03;;;;;;;11.85;100.00;93266.63;5093164;28;20194;-77
2021/08/01 03:33:39;;;;;;;6.00;3.53;;;;;;;11.81;100.00;93266.28;5093162;28;20205;-77
2021/08/01 03:36:07;;;;;;;6.57;3.63;;;;;;;11.82;100.00;93270.50;5092913;28;20253;-77
2021/08/01 03:38:33;;;;;;;7.83;3.53;;;;;;;11.83;100.00;93272.06;5092832;28;20210;-78
2021/08/01 03:41:00;;;;;;;9.10;3.63;;;;;;;11.83;100.00;93269.47;5092937;28;20653;-77
2021/08/01 03:43:26;;;;;;;6.30;4.00;;;;;;;11.85;100.00;93270.03;5092954;28;20623;-77
2021/08/01 03:45:52;;;;;;;9.50;3.90;;;;;;;11.85;100.00;93272.63;5092789;28;20202;-78
2021/08/01 03:48:19;;;;;;;10.20;4.07;;;;;;;11.88;100.00;93268.81;5093018;28;20209;-77
2021/08/01 03:50:45;;;;;;;8.47;3.83;;;;;;;11.92;100.00;93274.41;5092921;28;20208;-77
2021/08/01 03:53:16;;;;;;;8.87;4.03;;;;;;;11.90;100.00;93279.03;5092723;28;20210;-77
2021/08/01 03:55:42;;;;;;;9.53;3.80;;;;;;;11.90;100.00;93273.81;5092988;28;20201;-77
2021/08/01 03:58:09;;;;;;;10.17;4.20;;;;;;;11.89;100.00;93272.22;5092922;28;20217;-77
2021/08/01 04:00:35;;;;;;;6.83;3.93;;;;;;;11.90;100.00;93274.59;5092909;28;20209;-77
2021/08/01 04:03:02;;;;;;;5.50;3.90;;;;;;;11.92;100.00;93266.56;5092795;28;20209;-77
2021/08/01 04:05:28;;;;;;;7.70;4.13;;;;;;;11.96;100.00;93270.34;5092643;28;20233;-77
2021/08/01 04:07:55;;;;;;;7.40;4.40;;;;;;;11.97;100.00;93267.53;5092619;28;20212;-77
2021/08/01 04:10:22;;;;;;;7.87;4.10;;;;;;;11.99;100.00;93267.28;5092949;28;20213;-76
2021/08/01 04:12:49;;;;;;;9.30;3.93;;;;;;;12.00;100.00;93261.03;5092894;28;20217;-76
2021/08/01 04:15:15;;;;;;;6.43;3.60;;;;;;;12.01;100.00;93266.03;5093508;28;20209;-76
2021/08/01 04:17:42;;;;;;;5.33;3.67;;;;;;;12.03;100.00;93268.44;5093479;28;20251;-76
2021/08/01 04:20:09;;;;;;;7.70;3.73;;;;;;;12.03;100.00;93268.44;5093503;28;20649;-76
2021/08/01 04:22:36;;;;;;;8.57;3.80;;;;;;;11.99;100.00;93262.84;5096596;28;20205;-76
2021/08/01 04:25:02;;;;;;;11.23;4.27;;;;;;;12.01;100.00;93260.03;5096547;28;20234;-77
2021/08/01 04:27:30;;;;;;;9.27;4.10;;;;;;;12.05;100.00;93258.53;5096332;28;20603;-76
2021/08/01 04:29:57;;;;;;;8.68;4.55;;;;;;;12.01;100.00;93266.03;5095327;28;20437;-76
2021/08/01 04:32:23;;;;;;;7.70;4.07;;;;;;;12.01;100.00;93262.63;5095803;28;20205;-76
2021/08/01 04:34:52;;;;;;;9.47;3.60;;;;;;;12.03;100.00;93271.06;5095955;28;20672;-76
2021/08/01 04:37:19;;;;;;;5.63;3.93;;;;;;;12.03;100.00;93268.44;5096443;28;20205;-75
2021/08/01 04:39:45;;;;;;;6.63;3.67;;;;;;;12.03;100.00;93269.22;5096289;28;20202;-76
2021/08/01 04:42:12;;;;;;;10.93;3.87;;;;;;;12.05;100.00;93282.09;5096224;28;20198;-76
2021/08/01 04:44:39;;;;;;;8.60;4.37;;;;;;;12.07;100.00;93277.44;5096113;28;20237;-77
2021/08/01 04:47:06;;;;;;;10.10;4.70;;;;;;;12.15;100.00;93279.75;5095985;28;20568;-76
2021/08/01 04:49:32;;;;;;;8.10;4.93;;;;;;;12.18;100.00;93271.44;5095903;28;20197;-76
2021/08/01 04:51:59;;;;;;;11.37;4.87;;;;;;;12.21;100.00;93254.50;5096011;28;20198;-77
2021/08/01 04:54:25;;;;;;;8.93;4.50;;;;;;;12.16;100.00;93259.63;5095872;28;20560;-76
2021/08/01 04:56:52;;;;;;;8.47;5.27;;;;;;;12.26;100.00;93251.19;5095944;28;20206;-77
2021/08/01 04:59:18;;;;;;;8.63;4.87;;;;;;;12.34;100.00;93254.31;5095761;28;20652;-76
2021/08/01 05:01:47;;;;;;;13.50;5.20;;;;;;;12.42;100.00;93263.66;5095783;28;20237;-76
2021/08/01 05:04:14;;;;;;;15.37;4.93;;;;;;;12.43;100.00;93262.66;5095612;28;20257;-76
2021/08/01 05:06:40;;;;;;;11.40;5.77;;;;;;;12.48;100.00;93262.75;5095640;28;20649;-76
2021/08/01 05:09:07;;;;;;;9.65;5.90;;;;;;;12.61;100.00;93250.47;5095725;28;20202;-76
2021/08/01 05:11:33;;;;;;;10.93;5.68;;;;;;;12.69;100.00;93256.22;5095553;28;20790;-76
2021/08/01 05:13:59;;;;;;;12.03;5.97;;;;;;;12.67;100.00;93244.34;5095620;28;20541;-77
2021/08/01 05:16:26;;;;;;;11.60;6.20;;;;;;;12.73;100.00;93253.94;5095414;28;20198;-79
2021/08/01 05:18:54;;;;;;;8.63;5.80;;;;;;;12.69;100.00;93256.22;5095432;28;20197;-76
2021/08/01 05:21:21;;;;;;;10.63;6.03;;;;;;;12.71;100.00;93255.97;5095284;28;20194;-75
2021/08/01 05:23:48;;;;;;;11.10;6.53;;;;;;;12.84;100.00;93258.38;5095382;28;20255;-75
2021/08/01 05:26:15;;;;;;;13.47;6.70;;;;;;;12.79;100.00;93266.13;5095326;28;20202;-78
2021/08/01 05:28:41;;;;;;;17.77;7.27;;;;;;;12.71;100.00;93269.06;5095185;28;20206;-78
2021/08/01 05:31:08;;;;;;;16.80;6.47;;;;;;;12.75;100.00;93265.75;5094710;28;20209;-76
2021/08/01 05:33:34;;;;;;;10.40;6.47;;;;;;;12.83;100.00;93269.88;5095119;28;20205;-76
2021/08/01 05:36:07;;;;;;;21.40;11.00;;;;;;;12.87;100.00;93268.41;5095043;28;20233;-77
2021/08/01 05:38:33;;;;;;;18.23;8.60;;;;;;;12.93;100.00;93261.47;5095231;28;20538;-76
2021/08/01 05:41:00;;;;;;;16.33;7.75;;;;;;;12.94;100.00;93260.44;5095012;28;20202;-77
2021/08/01 05:43:26;;;;;;;13.43;6.93;;;;;;;13.00;100.00;93258.72;5094930;28;20202;-76
2021/08/01 05:45:52;;;;;;;20.97;10.43;;;;;;;12.94;100.00;93263.06;5094822;28;20771;-77
2021/08/01 05:48:19;;;;;;;17.50;9.07;;;;;;;12.87;100.00;93257.13;5095064;28;20209;-77
2021/08/01 05:50:45;;;;;;;18.93;7.53;;;;;;;12.81;100.00;93256.22;5094824;28;20198;-76
2021/08/01 05:53:13;;;;;;;17.30;7.30;;;;;;;12.79;100.00;93253.03;5094829;28;20205;-76
2021/08/01 05:55:40;;;;;;;20.20;9.77;;;;;;;12.85;100.00;93259.97;5094704;28;20205;-77
2021/08/01 05:58:06;;;;;;;15.90;7.50;;;;;;;12.89;100.00;93253.25;5094585;28;20205;-76
2021/08/01 06:00:32;;;;;;;12.60;6.53;;;;;;;12.83;100.00;93246.28;5094836;28;20206;-77
2021/08/01 06:02:59;;;;;;;9.63;6.38;;;;;;;12.99;100.00;93255.31;5094732;28;20198;-78
2021/08/01 06:05:26;;;;;;;10.17;6.07;;;;;;;13.00;100.00;93256.09;5094573;28;20229;-77
2021/08/01 06:07:52;;;;;;;12.00;6.83;;;;;;;13.14;100.00;93262.72;5094363;28;20553;-77
2021/08/01 06:10:20;;;;;;;10.70;6.47;;;;;;;13.19;100.00;93265.44;5094402;28;20212;-77
2021/08/01 06:12:46;;;;;;;12.15;5.90;;;;;;;13.24;100.00;93268.19;5094233;28;20653;-76
2021/08/01 06:15:13;;;;;;;10.88;6.07;;;;;;;13.27;100.00;93270.34;5094512;28;20206;-76
2021/08/01 06:17:39;;;;;;;9.63;5.50;;;;;;;13.31;100.00;93270.69;5094434;28;20201;-76
2021/08/01 06:20:06;;;;;;;10.63;5.47;;;;;;;13.30;100.00;93269.88;5094344;28;20209;-76
2021/08/01 06:22:33;;;;;;;7.43;4.95;;;;;;;13.37;100.00;93272.41;5094298;28;20205;-75
2021/08/01 06:24:59;;;;;;;10.70;5.82;;;;;;;13.43;100.00;93270.69;5094102;28;20226;-77
2021/08/01 06:27:27;;;;;;;10.85;5.90;;;;;;;13.47;100.00;93271.81;5094014;28;20206;-78
2021/08/01 06:29:54;;;;;;;8.73;5.50;;;;;;;13.46;100.00;93275.47;5094177;28;20198;-78
2021/08/01 06:32:20;;;;;;;13.80;6.00;;;;;;;13.43;100.00;93278.56;5094227;28;20209;-78
2021/08/01 06:34:46;;;;;;;11.25;5.50;;;;;;;13.55;100.00;93271.47;5093759;28;20198;-77
2021/08/01 06:37:13;;;;;;;10.75;5.30;;;;;;;13.65;100.00;93278.75;5094076;28;20201;-77
2021/08/01 06:39:43;;;;;;;10.15;5.07;;;;;;;13.58;100.00;93275.47;5093981;28;20706;-77
2021/08/01 06:42:09;;;;;;;10.15;5.22;;;;;;;13.55;100.00;93283.78;5092942;28;20665;-76
2021/08/01 06:44:37;;;;;;;9.02;5.03;;;;;;;13.44;100.00;93282.75;5093430;28;20233;-77
2021/08/01 06:47:04;;;;;;;11.80;5.30;;;;;;;13.50;100.00;93287.09;5093854;28;20216;-76
2021/08/01 06:49:30;;;;;;;8.48;5.20;;;;;;;13.58;100.00;93281.50;5093647;28;20193;-77
2021/08/01 06:51:57;;;;;;;9.13;5.22;;;;;;;13.56;100.00;93285.41;5093579;28;20209;-76
2021/08/01 06:54:23;;;;;;;8.38;4.85;;;;;;;13.65;100.00;93287.41;5093576;28;20213;-76
2021/08/01 06:56:50;;;;;;;11.30;5.82;;;;;;;13.79;100.00;93301.09;5093510;28;20205;-78
2021/08/01 06:59:16;;;;;;;10.40;4.75;;;;;;;13.84;100.00;93300.38;5093610;28;20208;-77
2021/08/01 07:01:44;;;;;;;9.52;4.80;;;;;;;13.88;100.00;93314.63;5093260;28;20200;-76
2021/08/01 07:04:10;;;;;;;8.80;5.18;;;;;;;13.96;100.00;93309.03;5093416;28;20198;-76
2021/08/01 07:06:37;;;;;;;10.63;5.72;;;;;;;13.98;100.00;93309.56;5093484;28;20198;-78
2021/08/01 07:09:03;;;;;;;8.60;4.75;;;;;;;13.85;100.00;93315.09;5093270;28;20201;-75
2021/08/01 07:11:30;;;;;;;6.72;4.10;;;;;;;13.85;100.00;93315.09;5093413;28;20297;-78
2021/08/01 07:13:56;;;;;;;10.30;4.80;;;;;;;13.89;100.00;93313.63;5093217;28;20202;-78
2021/08/01 07:16:23;;;;;;;7.40;4.45;;;;;;;13.87;100.00;93320.91;5093320;28;20202;-78
2021/08/01 07:18:50;;;;;;;10.93;5.40;;;;;;;13.99;100.00;93321.69;5093250;28;20202;-78
2021/08/01 07:21:17;;;;;;;7.53;4.93;;;;;;;14.00;100.00;93328.50;5093194;28;20205;-78
2021/08/01 07:23:43;;;;;;;8.43;4.93;;;;;;;13.92;100.00;93331.50;5093111;28;20194;-77
2021/08/01 07:26:10;;;;;;;9.30;5.15;;;;;;;13.92;100.00;93323.63;5093181;28;20226;-77
2021/08/01 07:28:38;;;;;;;6.55;4.57;;;;;;;13.88;100.00;93333.00;5093395;28;20579;-77
2021/08/01 07:31:04;;;;;;;6.05;4.38;;;;;;;13.77;100.00;93326.75;5093022;28;20648;-77
2021/08/01 07:33:31;;;;;;;7.85;4.88;;;;;;;13.87;100.00;93328.78;5092996;28;20548;-77
2021/08/01 07:35:59;;;;;;;8.60;4.80;;;;;;;13.92;100.00;93328.88;5092777;28;20622;-76
2021/08/01 07:38:25;;;;;;;8.80;4.88;;;;;;;13.93;100.00;93327.06;5093109;28;20205;-76
2021/08/01 07:40:52;;;;;;;9.82;4.90;;;;;;;13.99;100.00;93337.44;5092898;28;20202;-76
2021/08/01 07:43:18;;;;;;;8.82;5.00;;;;;;;13.91;100.00;93332.53;5092991;28;20202;-77
2021/08/01 07:45:45;;;;;;;7.18;4.25;;;;;;;13.92;100.00;93331.50;5092928;28;20229;-77
2021/08/01 07:48:11;;;;;;;8.23;4.25;;;;;;;13.95;100.00;93331.03;5092901;28;20194;-77
2021/08/01 07:50:38;;;;;;;8.60;4.63;;;;;;;14.06;100.00;93329.44;5092765;28;20292;-76
2021/08/01 07:53:05;;;;;;;8.30;4.03;;;;;;;14.03;100.00;93343.78;5092963;28;20205;-77
2021/08/01 07:55:32;;;;;;;13.00;4.55;;;;;;;14.05;100.00;93336.50;5096341;28;20205;-77
2021/08/01 07:57:58;;;;;;;9.25;4.20;;;;;;;14.02;100.00;93336.97;5097113;28;20198;-75
2021/08/01 08:00:25;;;;;;;7.13;4.13;;;;;;;13.99;100.00;93337.44;5097927;28;20198;-76
2021/08/01 08:02:51;;;;;;;8.50;4.30;;;;;;;13.89;100.00;93339.84;5098156;28;20201;-76
2021/08/01 08:05:18;;;;;;;7.03;4.72;;;;;;;13.86;100.00;93337.69;5098719;28;20226;-76
2021/08/01 08:07:45;;;;;;;6.88;4.47;;;;;;;13.85;100.00;93333.47;5097206;28;20209;-76
2021/08/01 08:10:15;;;;;;;7.78;4.57;;;;;;;13.81;100.00;93335.75;5096893;28;20213;-75
2021/08/01 08:12:41;;;;;;;6.90;4.50;;;;;;;13.87;100.00;93332.22;5096647;28;20198;-76
2021/08/01 08:15:09;;;;;;;9.05;4.63;;;;;;;14.07;100.00;93328.38;5097029;28;20296;-77
2021/08/01 08:17:36;;;;;;;9.98;4.55;;;;;;;13.97;100.00;93339.50;5096622;28;20205;-77
2021/08/01 08:20:03;;;;;;;9.55;4.78;;;;;;;13.96;100.00;93330.03;5096432;28;20214;-77
2021/08/01 08:22:30;;;;;;;7.60;4.70;;;;;;;13.95;100.00;93341.53;5096469;28;20656;-81
2021/08/01 08:24:57;;;;;;;11.43;4.93;;;;;;;13.95;100.00;93338.91;5087164;28;20283;-79
2021/08/01 08:27:24;;;;;;;10.30;5.25;;;;;;;13.90;100.00;93343.25;5085246;28;20197;-81
2021/08/01 08:29:51;;;;;;;8.50;4.57;;;;;;;13.98;100.00;93345.53;5075603;28;20217;-78
2021/08/01 08:32:18;;;;;;;9.80;4.60;;;;;;;14.24;100.00;93338.97;5075872;28;20205;-80
2021/08/01 08:34:44;;;;;;;8.82;4.30;;;;;;;14.39;100.00;93351.59;5083039;28;20199;-78
2021/08/01 08:37:12;;;;;;;13.00;4.40;;;;;;;14.40;100.00;93351.31;5094083;28;20209;-80
2021/08/01 08:39:39;;;;;;;6.00;4.13;;;;;;;14.31;100.00;93360.63;5094774;28;20448;-80
2021/08/01 08:42:06;;;;;;;8.98;4.90;;;;;;;14.23;100.00;93353.13;5095175;28;20205;-83
2021/08/01 08:44:35;;;;;;;7.68;4.85;;;;;;;14.28;100.00;93361.09;5095340;28;20591;-81
2021/08/01 08:47:01;;;;;;;5.15;3.88;;;;;;;14.44;100.00;93368.22;5095989;28;20251;-81
2021/08/01 08:49:30;;;;;;;10.60;4.50;;;;;;;14.50;100.00;93363.84;5096197;28;20202;-79
2021/08/01 08:51:57;;;;;;;9.10;4.57;;;;;;;14.59;100.00;93364.31;5096229;28;20293;-81
2021/08/01 08:54:33;;;;;;;8.95;4.32;;;;;;;14.61;100.00;93367.50;5096145;28;20206;-81
2021/08/01 08:57:02;;;;;;;9.25;3.95;;;;;;;14.33;100.00;93373.53;5096065;28;20217;-83
2021/08/01 08:59:29;;;;;;;8.65;4.88;;;;;;;13.98;100.00;93372.56;5096640;28;20534;-80
2021/08/01 09:01:58;;;;;;;7.63;4.55;;;;;;;13.91;100.00;93371.91;5096373;28;20246;-80
2021/08/01 09:04:24;;;;;;;8.00;4.47;;;;;;;14.18;100.00;93376.66;5096058;28;20223;-82
2021/08/01 09:06:51;;;;;;;10.25;5.85;;;;;;;14.60;100.00;93377.22;5094966;28;20228;-81
2021/08/01 09:09:17;;;;;;;8.25;4.47;;;;;;;14.91;100.00;93384.84;5095681;28;20255;-80
2021/08/01 09:11:44;;;;;;;8.02;4.35;;;;;;;15.09;100.00;93379.38;5095649;28;20644;-81
2021/08/01 09:14:19;;;;;;;6.82;3.53;;;;;;;15.21;100.00;93381.94;5095736;28;20198;-83
2021/08/01 09:16:49;;;;;;;8.75;3.53;;;;;;;15.39;100.00;93375.63;5095778;28;20273;-80
2021/08/01 09:19:32;;;;;;;8.63;3.95;;;;;;;15.32;100.00;93380.25;5095534;28;20206;-81
2021/08/01 09:22:18;;;;;;;7.97;4.53;;;;;;;15.49;100.00;93380.25;5094075;28;20194;-78
2021/08/01 09:24:46;;;;;;;10.23;4.20;;;;;;;15.46;100.00;93389.41;5094704;28;20202;-79
2021/08/01 09:27:26;;;;;;;8.68;4.40;;;;;;;14.91;100.00;93396.16;5090903;28;20230;-77
2021/08/01 09:29:53;;;;;;;7.53;4.35;;;;;;;15.16;100.00;93398.41;5093419;28;20665;-78
2021/08/01 09:32:20;;;;;;;9.25;4.30;;;;;;;15.40;100.00;93395.63;5094754;28;20198;-79
2021/08/01 09:34:49;;;;;;;6.88;3.80;;;;;;;15.33;100.00;93392.38;5093245;28;20198;-80
2021/08/01 09:37:31;;;;;;;9.73;4.07;;;;;;;15.62;100.00;93392.28;5095640;28;20213;-81
2021/08/01 09:40:10;;;;;;;6.97;3.72;;;;;;;15.83;100.00;93394.19;5095173;28;20202;-82
2021/08/01 09:42:41;;;;;;;7.32;3.58;;;;;;;15.93;100.00;93388.28;5095203;28;20210;-81
2021/08/01 09:45:16;;;;;;;6.30;3.17;;;;;;;15.93;100.00;93379.59;5094706;28;20225;-80
2021/08/01 09:47:43;;;;;;;6.22;3.15;;;;;;;16.05;100.00;93383.72;5095052;28;20205;-81
2021/08/01 09:50:13;;;;;;;6.95;3.30;;;;;;;16.21;100.00;93389.16;5094804;28;20660;-80
2021/08/01 09:52:39;;;;;;;5.40;3.10;;;;;;;16.45;100.00;93381.78;5094912;28;20245;-79
2021/08/01 09:55:06;;;;;;;6.30;3.33;;;;;;;16.40;100.00;93374.66;5094820;28;20206;-81
2021/08/01 09:57:33;;;;;;;4.28;2.80;;;;;;;16.62;100.00;93377.25;5094733;28;20198;-80
2021/08/01 10:00:07;;;;;;;4.05;2.67;;;;;;;16.61;100.00;93383.56;5094514;28;20198;-81
2021/08/01 10:02:38;;;;;;;3.58;2.40;;;;;;;16.63;100.00;93384.09;5094829;28;20301;-81
2021/08/01 10:05:19;;;;;;;6.18;2.63;;;;;;;16.27;100.00;93391.59;5094546;28;20202;-80
2021/08/01 10:07:47;;;;;;;5.10;3.03;;;;;;;15.91;100.00;93380.63;5094605;28;20194;-80
2021/08/01 10:10:22;;;;;;;6.68;2.97;;;;;;;15.87;100.00;93381.34;5094382;28;20206;-80
2021/08/01 10:12:52;;;;;;;5.72;3.40;;;;;;;15.96;100.00;93381.72;5094618;28;20200;-80
2021/08/01 10:15:19;;;;;;;4.82;2.90;;;;;;;16.05;100.00;93380.25;5094448;28;20268;-79
2021/08/01 10:17:45;;;;;;;5.88;2.75;;;;;;;15.68;100.00;93386.84;5093165;28;20209;-80
2021/08/01 10:20:13;;;;;;;4.88;3.08;;;;;;;15.84;100.00;93381.84;5094331;28;20213;-83
2021/08/01 10:22:43;;;;;;;8.48;3.03;;;;;;;16.21;100.00;93387.31;5094172;28;20201;-81
2021/08/01 10:25:12;;;;;;;4.57;3.05;;;;;;;16.59;100.00;93380.38;5094397;28;20206;-79
2021/08/01 10:27:44;;;;;;;6.22;3.00;;;;;;;16.70;100.00;93385.75;5093994;28;20915;-78
2021/08/01 10:30:14;;;;;;;3.80;2.75;;;;;;;16.54;100.00;93379.53;5094110;28;20251;-77
2021/08/01 10:32:45;;;;;;;4.97;2.92;;;;;;;15.53;100.00;93382.16;5094087;28;20202;-78
2021/08/01 10:35:16;;;;;;;5.25;2.83;;;;;;;15.60;100.00;93378.56;5094129;28;20237;-76
2021/08/01 10:37:52;;;;;;;4.75;2.75;;;;;;;15.75;100.00;93380.63;5093963;28;20648;-76
2021/08/01 10:40:20;;;;;;;4.82;2.92;;;;;;;16.11;100.00;93381.91;5094239;28;20197;-77
2021/08/01 10:42:50;;;;;;;2.10;1.75;;;;;;;16.01;100.00;93376.53;5094053;28;20209;-79
2021/08/01 10:45:20;;;;;;;4.72;2.25;;;;;;;16.00;100.00;93377.56;5093883;28;20202;-78
2021/08/01 10:47:51;;;;;;;3.35;2.28;;;;;;;15.60;100.00;93375.94;5093677;28;20210;-77
2021/08/01 10:50:19;;;;;;;6.93;2.63;;;;;;;16.38;100.00;93386.47;5093750;28;20660;-78
2021/08/01 10:52:47;;;;;;;2.63;2.30;;;;;;;17.18;100.00;93378.84;5093820;28;20198;-77
2021/08/01 10:55:24;;;;;;;5.43;2.65;;;;;;;17.27;100.00;93379.19;5093027;28;20683;-77
2021/08/01 10:58:11;;;;;;;4.78;2.00;;;;;;;16.51;100.00;93375.53;5093661;28;20201;-78
2021/08/01 11:00:59;;;;;;;6.18;2.90;;;;;;;16.80;100.00;93375.31;5093712;28;20206;-78
2021/08/01 11:03:26;;;;;;;7.05;2.70;;;;;;;17.01;100.00;93379.75;5092207;28;20434;-78
2021/08/01 11:05:53;;;;;;;2.88;2.08;;;;;;;17.50;100.00;93378.03;5093426;28;20222;-78
2021/08/01 11:08:21;;;;;;;6.57;2.53;;;;;;;17.90;100.00;93374.91;5093532;28;20210;-78
2021/08/01 11:10:47;;;;;;;3.90;2.33;;;;;;;17.53;100.00;93370.41;5093345;28;20213;-79
2021/08/01 11:13:43;;;;;;;5.95;2.38;;;;;;;17.65;100.00;93361.50;5093124;28;20527;-79
2021/08/01 11:16:12;;;;;;;6.85;2.30;;;;;;;17.90;100.00;93368.81;5093377;28;20251;-78
2021/08/01 11:18:40;;;;;;;3.30;2.13;;;;;;;18.05;100.00;93361.00;5093091;28;20667;-79
2021/08/01 11:21:09;;;;;;;3.42;2.00;;;;;;;18.27;100.00;93362.69;5093292;28;20209;-78
2021/08/01 11:24:09;;;;;;;4.13;1.90;;;;;;;18.64;100.00;93364.38;5093300;28;20193;-78
2021/08/01 11:26:38;;;;;;;5.82;1.88;;;;;;;18.14;100.00;93357.88;5093126;28;20715;-78
2021/08/01 11:29:10;;;;;;;3.92;2.28;;;;;;;18.67;100.00;93361.22;5092638;28;20198;-78